createdAt,value
2022-09-10T00:02:00.059Z,17.19
2022-09-10T00:05:18.903Z,17.17
2022-09-10T00:08:35.211Z,17.13
2022-09-10T00:11:52.537Z,17.19
2022-09-10T00:15:09.424Z,17.12
2022-09-10T00:18:28.049Z,17.08
2022-09-10T00:21:45.013Z,17.02
2022-09-10T00:25:08.106Z,16.97
2022-09-10T00:28:22.776Z,16.96
2022-09-10T00:31:40.712Z,16.94
2022-09-10T00:34:57.378Z,16.89
2022-09-10T00:38:15.259Z,16.82
2022-09-10T00:41:34.259Z,16.79
2022-09-10T00:45:06.344Z,16.77
2022-09-10T00:48:27.592Z,16.75
2022-09-10T00:51:45.338Z,16.77
2022-09-10T00:55:01.545Z,16.80
2022-09-10T00:58:21.004Z,16.84
2022-09-10T01:01:37.771Z,16.84
2022-09-10T01:04:55.597Z,16.75
2022-09-10T01:08:12.816Z,16.73
2022-09-10T01:11:51.587Z,16.70
2022-09-10T01:15:21.808Z,16.69
2022-09-10T01:18:45.867Z,16.63
2022-09-10T01:22:08.779Z,16.57
2022-09-10T01:25:31.205Z,16.57
2022-09-10T01:28:52.035Z,16.58
2022-09-10T01:32:15.519Z,16.62
2022-09-10T01:35:41.826Z,16.59
2022-09-10T01:38:59.879Z,16.52
2022-09-10T01:42:16.917Z,16.45
2022-09-10T01:45:34.299Z,16.42
2022-09-10T01:49:16.633Z,16.36
2022-09-10T01:52:39.201Z,16.35
2022-09-10T01:56:04.527Z,16.38
2022-09-10T01:59:29.892Z,16.40
2022-09-10T02:02:52.041Z,16.39
2022-09-10T02:06:11.482Z,16.36
2022-09-10T02:09:28.603Z,16.29
2022-09-10T02:12:46.187Z,16.26
2022-09-10T02:16:27.102Z,16.28
2022-09-10T02:19:43.473Z,16.26
2022-09-10T02:23:04.319Z,16.31
2022-09-10T02:26:21.593Z,16.32
2022-09-10T02:29:39.360Z,16.30
2022-09-10T02:32:55.802Z,16.32
2022-09-10T02:36:15.522Z,16.35
2022-09-10T02:39:32.312Z,16.34
2022-09-10T02:42:49.165Z,16.34
2022-09-10T02:46:08.086Z,16.32
2022-09-10T02:49:25.518Z,16.30
2022-09-10T02:52:41.869Z,16.25
2022-09-10T02:55:59.801Z,16.23
2022-09-10T02:59:16.400Z,16.17
2022-09-10T03:02:33.490Z,16.19
2022-09-10T03:05:50.670Z,16.20
2022-09-10T03:09:07.616Z,16.15
2022-09-10T03:12:24.568Z,16.09
2022-09-10T03:15:41.115Z,16.11
2022-09-10T03:18:57.555Z,16.11
2022-09-10T03:22:14.227Z,16.09
2022-09-10T03:25:31.143Z,16.05
2022-09-10T03:28:49.336Z,16.14
2022-09-10T03:32:07.840Z,16.15
2022-09-10T03:35:24.430Z,16.10
2022-09-10T03:38:41.329Z,16.09
2022-09-10T03:41:57.699Z,16.16
2022-09-10T03:45:18.195Z,16.25
2022-09-10T03:48:35.417Z,16.28
2022-09-10T03:51:52.287Z,16.27
2022-09-10T03:55:09.698Z,16.32
2022-09-10T03:58:29.365Z,16.33
2022-09-10T04:01:46.616Z,16.33
2022-09-10T04:05:03.328Z,16.25
2022-09-10T04:08:21.275Z,16.25
2022-09-10T04:11:40.811Z,16.25
2022-09-10T04:14:57.807Z,16.26
2022-09-10T04:18:17.095Z,16.26
2022-09-10T04:21:35.144Z,16.22
2022-09-10T04:24:52.199Z,16.14
2022-09-10T04:28:10.230Z,16.09
2022-09-10T04:31:27.124Z,16.13
2022-09-10T04:34:45.473Z,16.09
2022-09-10T04:38:02.920Z,16.13
2022-09-10T04:41:20.300Z,16.13
2022-09-10T04:44:37.596Z,16.20
2022-09-10T04:47:54.959Z,16.21
2022-09-10T04:51:17.547Z,16.13
2022-09-10T04:54:34.442Z,16.10
2022-09-10T04:57:50.876Z,16.09
2022-09-10T05:01:08.288Z,16.06
2022-09-10T05:04:24.726Z,16.07
2022-09-10T05:07:41.556Z,16.06
2022-09-10T05:10:58.019Z,16.07
2022-09-10T05:14:14.905Z,16.14
2022-09-10T05:17:31.869Z,16.23
2022-09-10T05:20:51.236Z,16.29
2022-09-10T05:24:08.727Z,16.36
2022-09-10T05:27:25.020Z,16.40
2022-09-10T05:30:41.679Z,16.41
2022-09-10T05:34:01.890Z,16.43
2022-09-10T05:37:19.483Z,16.48
2022-09-10T05:40:35.634Z,16.49
2022-09-10T05:43:52.406Z,16.55
2022-09-10T05:47:09.699Z,16.51
2022-09-10T05:50:27.599Z,16.52
2022-09-10T05:53:44.919Z,16.56
2022-09-10T05:57:02.297Z,16.57
2022-09-10T06:00:21.312Z,16.49
2022-09-10T06:03:44.037Z,16.51
2022-09-10T06:07:01.202Z,16.45
2022-09-10T06:10:18.955Z,16.47
2022-09-10T06:13:36.611Z,16.53
2022-09-10T06:16:55.395Z,16.56
2022-09-10T06:20:16.459Z,16.62
2022-09-10T06:23:34.815Z,16.62
2022-09-10T06:26:51.181Z,16.63
2022-09-10T06:30:07.629Z,16.56
2022-09-10T06:33:28.144Z,16.53
2022-09-10T06:36:44.535Z,16.49
2022-09-10T06:40:00.556Z,16.51
2022-09-10T06:43:18.303Z,16.52
2022-09-10T06:47:16.067Z,16.46
2022-09-10T06:50:00.920Z,16.42
2022-09-10T06:53:18.936Z,16.45
2022-09-10T06:56:42.370Z,16.39
2022-09-10T07:00:02.180Z,16.34
2022-09-10T07:03:20.057Z,16.36
2022-09-10T07:06:40.051Z,16.38
2022-09-10T07:10:04.734Z,16.36
2022-09-10T07:13:21.765Z,16.40
2022-09-10T07:16:40.892Z,16.46
2022-09-10T07:19:57.963Z,16.45
2022-09-10T07:23:16.182Z,16.48
2022-09-10T07:26:32.987Z,16.48
2022-09-10T07:29:52.797Z,16.53
2022-09-10T07:33:11.874Z,16.54
2022-09-10T07:36:35.342Z,16.50
2022-09-10T07:40:12.651Z,16.52
2022-09-10T07:46:57.297Z,16.52
2022-09-10T07:50:17.050Z,16.49
2022-09-10T07:53:31.261Z,16.52
2022-09-10T07:56:49.235Z,16.50
2022-09-10T08:00:06.136Z,16.47
2022-09-10T08:03:24.586Z,16.44
2022-09-10T08:06:41.222Z,16.45
2022-09-10T08:09:58.295Z,16.46
2022-09-10T08:13:15.643Z,16.47
2022-09-10T08:16:33.917Z,16.51
2022-09-10T08:19:52.020Z,16.56
2022-09-10T08:23:08.934Z,16.57
2022-09-10T08:26:26.948Z,16.52
2022-09-10T08:29:45.142Z,16.50
2022-09-10T08:33:02.860Z,16.50
2022-09-10T08:36:22.578Z,16.47
2022-09-10T08:39:39.214Z,16.41
2022-09-10T08:42:59.195Z,16.39
2022-09-10T08:46:24.253Z,16.38
2022-09-10T08:49:48.125Z,16.37
2022-09-10T08:53:12.682Z,16.34
2022-09-10T08:56:34.228Z,16.37
2022-09-10T08:59:54.075Z,16.36
2022-09-10T09:03:16.884Z,16.44
2022-09-10T09:06:40.383Z,16.52
2022-09-10T09:10:00.209Z,16.56
2022-09-10T09:13:35.933Z,16.56
2022-09-10T09:17:29.979Z,16.63
2022-09-10T09:20:54.548Z,16.68
2022-09-10T09:24:17.354Z,16.66
2022-09-10T09:27:40.132Z,16.64
2022-09-10T09:31:00.038Z,16.71
2022-09-10T09:34:23.988Z,16.74
2022-09-10T09:37:56.079Z,16.76
2022-09-10T09:41:27.249Z,16.76
2022-09-10T09:44:56.892Z,16.78
2022-09-10T09:48:12.740Z,16.80
2022-09-10T09:51:31.460Z,16.78
2022-09-10T09:58:43.530Z,16.65
2022-09-10T10:02:04.788Z,16.64
2022-09-10T10:05:28.857Z,16.69
2022-09-10T10:08:48.999Z,16.73
2022-09-10T10:12:08.064Z,16.79
2022-09-10T10:15:42.674Z,16.90
2022-09-10T10:18:59.633Z,17.03
2022-09-10T10:22:36.385Z,17.22
2022-09-10T10:26:06.901Z,17.29
2022-09-10T10:29:29.693Z,17.37
2022-09-10T10:32:58.442Z,17.47
2022-09-10T10:36:24.502Z,17.48
2022-09-10T10:39:56.136Z,17.51
2022-09-10T10:43:21.509Z,17.56
2022-09-10T10:46:43.707Z,17.60
2022-09-10T10:50:07.542Z,17.58
2022-09-10T10:53:49.392Z,17.68
2022-09-10T10:57:31.692Z,17.87
2022-09-10T11:00:52.190Z,17.86
2022-09-10T11:04:17.247Z,17.90
2022-09-10T11:07:40.939Z,17.88
2022-09-10T11:11:01.552Z,17.88
2022-09-10T11:14:27.025Z,17.91
2022-09-10T11:17:48.004Z,17.99
2022-09-10T11:21:13.749Z,17.95
2022-09-10T11:24:34.801Z,17.91
2022-09-10T11:27:55.676Z,17.88
2022-09-10T11:31:18.370Z,17.85
2022-09-10T11:35:12.125Z,17.77
2022-09-10T11:38:36.814Z,17.68
2022-09-10T11:42:09.699Z,17.61
2022-09-10T11:45:39.544Z,17.52
2022-09-10T11:49:04.379Z,17.54
2022-09-10T11:52:26.923Z,17.53
2022-09-10T11:56:02.179Z,17.55
2022-09-10T11:59:31.857Z,17.59
2022-09-10T12:03:41.559Z,17.67
2022-09-10T12:07:11.299Z,17.71
2022-09-10T12:10:36.377Z,17.90
2022-09-10T12:13:56.239Z,17.99
2022-09-10T12:17:18.286Z,18.10
2022-09-10T12:20:45.547Z,18.17
2022-09-10T12:24:02.970Z,18.19
2022-09-10T12:27:28.090Z,18.16
2022-09-10T12:31:10.739Z,18.16
2022-09-10T12:34:29.647Z,18.11
2022-09-10T12:37:54.775Z,18.10
2022-09-10T12:41:15.587Z,18.03
2022-09-10T12:45:02.240Z,17.98
2022-09-10T12:48:27.080Z,17.90
2022-09-10T12:51:52.264Z,17.86
2022-09-10T12:55:13.343Z,17.90
2022-09-10T12:58:38.641Z,17.92
2022-09-10T13:02:01.425Z,17.89
2022-09-10T13:05:35.598Z,17.83
2022-09-10T13:08:57.613Z,17.82
2022-09-10T13:12:23.907Z,17.77
2022-09-10T13:15:44.159Z,17.77
2022-09-10T13:19:14.259Z,17.74
2022-09-10T13:23:07.170Z,17.71
2022-09-10T13:26:57.966Z,17.63
2022-09-10T13:30:26.781Z,17.48
2022-09-10T13:33:50.013Z,17.57
2022-09-10T13:37:42.120Z,17.65
2022-09-10T13:41:17.379Z,17.74
2022-09-10T13:44:46.171Z,17.74
2022-09-10T13:48:09.585Z,17.83
2022-09-10T13:51:34.146Z,17.85
2022-09-10T13:54:57.317Z,17.87
2022-09-10T13:58:20.872Z,17.92
2022-09-10T14:02:01.502Z,18.03
2022-09-10T14:05:45.155Z,17.92
2022-09-10T14:09:10.932Z,18.02
2022-09-10T14:12:33.992Z,18.02
2022-09-10T14:15:51.801Z,18.08
2022-09-10T14:19:11.919Z,18.13
2022-09-10T14:22:31.895Z,18.11
2022-09-10T14:25:51.046Z,18.07
2022-09-10T14:29:25.286Z,18.04
2022-09-10T14:32:47.822Z,17.99
2022-09-10T14:36:22.642Z,18.01
2022-09-10T14:39:40.156Z,17.94
2022-09-10T14:43:20.712Z,17.90
2022-09-10T14:47:06.813Z,17.81
2022-09-10T14:50:43.330Z,17.71
2022-09-10T14:54:03.681Z,17.65
2022-09-10T14:57:24.184Z,17.65
2022-09-10T15:00:48.838Z,17.66
2022-09-10T15:04:05.218Z,17.65
2022-09-10T15:07:21.531Z,17.60
2022-09-10T15:10:41.214Z,17.63
2022-09-10T15:14:02.113Z,17.63
2022-09-10T15:17:25.666Z,17.45
2022-09-10T15:20:44.133Z,17.46
2022-09-10T15:24:05.322Z,17.51
2022-09-10T15:27:31.602Z,17.43
2022-09-10T15:30:49.385Z,17.45
2022-09-10T15:34:05.508Z,17.42
2022-09-10T15:37:25.117Z,17.53
2022-09-10T15:40:41.322Z,17.54
2022-09-10T15:44:10.325Z,17.43
2022-09-10T15:47:28.697Z,17.42
2022-09-10T15:50:52.639Z,17.41
2022-09-10T15:54:12.357Z,17.41
2022-09-10T15:57:29.233Z,17.44
2022-09-10T16:00:48.974Z,17.37
2022-09-10T16:04:11.313Z,17.33
2022-09-10T16:07:28.781Z,17.35
2022-09-10T16:10:49.110Z,17.37
2022-09-10T16:14:07.844Z,17.39
2022-09-10T16:17:24.332Z,17.32
2022-09-10T16:20:41.189Z,17.35
2022-09-10T16:24:01.692Z,17.39
2022-09-10T16:27:18.194Z,17.32
2022-09-10T16:30:35.384Z,17.26
2022-09-10T16:34:04.377Z,17.28
2022-09-10T16:37:20.628Z,17.22
2022-09-10T16:40:37.195Z,17.19
2022-09-10T16:43:53.612Z,17.16
2022-09-10T16:47:19.920Z,17.15
2022-09-10T16:50:36.349Z,17.17
2022-09-10T16:53:56.735Z,17.17
2022-09-10T16:57:20.522Z,17.12
2022-09-10T17:00:43.853Z,17.15
2022-09-10T17:04:13.725Z,17.18
2022-09-10T17:07:31.746Z,17.18
2022-09-10T17:10:51.084Z,17.15
2022-09-10T17:14:09.043Z,17.12
2022-09-10T17:17:30.445Z,17.13
2022-09-10T17:20:49.084Z,17.11
2022-09-10T17:24:07.856Z,17.01
2022-09-10T17:27:25.865Z,16.98
2022-09-10T17:30:48.062Z,16.96
2022-09-10T17:34:04.600Z,16.89
2022-09-10T17:37:24.346Z,16.81
2022-09-10T17:40:40.598Z,16.79
2022-09-10T17:43:58.022Z,16.71
2022-09-10T17:47:19.421Z,16.70
2022-09-10T17:50:38.762Z,16.73
2022-09-10T17:54:01.624Z,16.68
2022-09-10T17:57:18.762Z,16.48
2022-09-10T18:00:35.519Z,16.09
2022-09-10T18:03:51.959Z,15.64
2022-09-10T18:07:08.071Z,15.31
2022-09-10T18:10:24.793Z,15.08
2022-09-10T18:13:42.172Z,14.71
2022-09-10T18:17:02.137Z,14.47
2022-09-10T18:20:23.565Z,14.51
2022-09-10T18:23:44.131Z,14.31
2022-09-10T18:27:05.453Z,14.21
2022-09-10T18:30:22.845Z,14.22
2022-09-10T18:33:46.551Z,14.14
2022-09-10T18:37:05.929Z,14.08
2022-09-10T18:40:26.027Z,14.08
2022-09-10T18:43:53.976Z,14.03
2022-09-10T18:47:34.310Z,13.99
2022-09-10T18:50:34.829Z,13.95
2022-09-10T18:53:57.219Z,13.93
2022-09-10T18:57:14.085Z,13.92
2022-09-10T19:04:20.969Z,13.91
2022-09-10T19:07:41.754Z,13.85
2022-09-10T19:11:09.748Z,13.80
2022-09-10T19:14:31.737Z,13.80
2022-09-10T19:17:56.297Z,13.80
2022-09-10T19:21:14.315Z,13.81
2022-09-10T19:24:56.532Z,13.79
2022-09-10T19:27:49.654Z,13.78
2022-09-10T19:31:18.803Z,13.77
2022-09-10T19:34:36.471Z,13.73
2022-09-10T19:37:53.012Z,13.80
2022-09-10T19:41:21.660Z,13.72
2022-09-10T19:44:39.503Z,13.67
2022-09-10T19:47:56.698Z,13.65
2022-09-10T19:51:16.742Z,13.67
2022-09-10T19:54:33.857Z,13.67
2022-09-10T19:57:50.141Z,13.68
2022-09-10T20:01:06.534Z,13.68
2022-09-10T20:04:26.357Z,13.65
2022-09-10T20:07:42.794Z,13.57
2022-09-10T20:11:03.131Z,13.53
2022-09-10T20:14:21.869Z,13.54
2022-09-10T20:17:39.140Z,13.58
2022-09-10T20:20:55.913Z,13.56
2022-09-10T20:24:13.977Z,13.59
2022-09-10T20:27:30.415Z,13.57
2022-09-10T20:30:50.199Z,13.52
2022-09-10T20:34:09.415Z,13.56
2022-09-10T20:37:25.806Z,13.58
2022-09-10T20:40:43.181Z,13.66
2022-09-10T20:44:02.482Z,13.68
2022-09-10T20:47:19.238Z,13.68
2022-09-10T20:50:35.654Z,13.67
2022-09-10T20:53:53.000Z,13.70
2022-09-10T20:57:09.764Z,13.71
2022-09-10T21:00:27.402Z,13.79
2022-09-10T21:03:46.224Z,13.81
2022-09-10T21:07:02.640Z,13.75
2022-09-10T21:10:19.844Z,13.71
2022-09-10T21:13:36.986Z,13.62
2022-09-10T21:16:53.903Z,13.57
2022-09-10T21:20:13.349Z,13.61
2022-09-10T21:23:29.881Z,13.65
2022-09-10T21:26:48.825Z,13.71
2022-09-10T21:30:05.058Z,13.79
2022-09-10T21:33:21.379Z,13.87
2022-09-10T21:36:39.210Z,13.91
2022-09-10T21:39:55.585Z,13.98
2022-09-10T21:43:11.714Z,14.02
2022-09-10T21:46:28.347Z,13.99
2022-09-10T21:49:45.715Z,14.00
2022-09-10T21:53:02.336Z,13.98
2022-09-10T21:56:22.630Z,13.96
2022-09-10T21:59:38.855Z,13.95
2022-09-10T22:02:55.567Z,13.88
2022-09-10T22:06:19.226Z,13.88
2022-09-10T22:09:35.285Z,13.87
2022-09-10T22:12:51.868Z,13.86
2022-09-10T22:16:09.219Z,13.86
2022-09-10T22:19:28.259Z,13.84
2022-09-10T22:22:45.560Z,13.85
2022-09-10T22:26:04.959Z,13.82
2022-09-10T22:29:23.535Z,13.80
2022-09-10T22:32:41.136Z,13.84
2022-09-10T22:35:57.800Z,13.77
2022-09-10T22:39:17.506Z,13.77
2022-09-10T22:42:33.558Z,13.66
2022-09-10T22:45:50.510Z,13.61
2022-09-10T22:49:07.995Z,13.62
2022-09-10T22:52:25.196Z,13.59
2022-09-10T22:55:42.914Z,13.60
2022-09-10T22:59:00.667Z,13.62
2022-09-10T23:02:16.936Z,13.61
2022-09-10T23:05:33.043Z,13.64
2022-09-10T23:08:51.650Z,13.63
2022-09-10T23:12:08.994Z,13.58
2022-09-10T23:15:25.297Z,13.65
2022-09-10T23:18:41.596Z,13.72
2022-09-10T23:22:00.606Z,13.72
2022-09-10T23:25:20.793Z,13.69
2022-09-10T23:28:37.689Z,13.69
2022-09-10T23:31:55.793Z,13.67
2022-09-10T23:35:13.480Z,13.68
2022-09-10T23:38:31.749Z,13.67
2022-09-10T23:41:46.667Z,13.67
2022-09-10T23:45:02.671Z,13.68
2022-09-10T23:48:19.129Z,13.71
2022-09-10T23:51:36.337Z,13.75
2022-09-10T23:54:52.434Z,13.80
2022-09-10T23:58:08.496Z,13.82
